Time;durP1;ratioP1;P1;durP2;ratioP2;P2;SDS_P1;SDS_P2;PMS_P1;PMS_P2;Temp;Humidity;BMP_temperature;BMP_pressure;BME280_temperature;BME280_humidity;BME280_pressure;Samples;Min_cycle;Max_cycle;Signal;HPM_P1;HPM_P2
2022/11/10 00:01:45;;;;;;;;;21.00;17.25;;;;;;;;5102678;27;61797;-78
2022/11/10 00:04:10;;;;;;;;;26.50;19.75;;;;;;;;5102636;27;63166;-78
2022/11/10 00:06:36;;;;;;;;;27.00;18.75;;;;;;;;5084475;27;61955;-78
2022/11/10 00:09:01;;;;;;;;;26.00;23.00;;;;;;;;5103061;27;61944;-79
2022/11/10 00:11:26;;;;;;;;;28.50;17.50;;;;;;;;5084359;27;61848;-78
2022/11/10 00:19:19;;;;;;;;;27.75;21.25;;;;;;;;5102232;27;61939;-79
2022/11/10 00:21:45;;;;;;;;;24.00;20.00;;;;;;;;5084698;27;61831;-79
2022/11/10 00:24:10;;;;;;;;;23.50;19.50;;;;;;;;5083213;27;62848;-79
2022/11/10 00:26:35;;;;;;;;;30.00;22.00;;;;;;;;5102281;27;61860;-79
2022/11/10 00:29:01;;;;;;;;;28.50;22.25;;;;;;;;5102415;27;61684;-79
2022/11/10 00:31:29;;;;;;;;;23.75;21.75;;;;;;;;5088027;27;62215;-79
2022/11/10 00:33:55;;;;;;;;;24.50;18.75;;;;;;;;5105523;27;62647;-79
2022/11/10 00:36:20;;;;;;;;;20.75;19.00;;;;;;;;5106316;27;62040;-78
2022/11/10 00:38:48;;;;;;;;;15.50;11.50;;;;;;;;5106465;27;61838;-78
2022/11/10 00:41:13;;;;;;;;;22.25;18.50;;;;;;;;5087637;27;61752;-79
2022/11/10 00:43:39;;;;;;;;;20.75;16.50;;;;;;;;5104962;27;61944;-79
2022/11/10 00:46:04;;;;;;;;;17.25;13.75;;;;;;;;5106424;27;61941;-78
2022/11/10 00:48:29;;;;;;;;;16.00;14.25;;;;;;;;5086835;27;62136;-78
2022/11/10 00:50:55;;;;;;;;;20.00;15.00;;;;;;;;5106555;27;61643;-78
2022/11/10 00:53:20;;;;;;;;;20.50;14.75;;;;;;;;5086921;27;61973;-78
2022/11/10 00:55:46;;;;;;;;;24.00;14.50;;;;;;;;5086957;27;61735;-79
2022/11/10 00:58:11;;;;;;;;;15.25;14.25;;;;;;;;5105553;27;61918;-79
2022/11/10 01:00:36;;;;;;;;;17.50;16.00;;;;;;;;5105818;27;61969;-78
2022/11/10 01:03:01;;;;;;;;;18.00;15.75;;;;;;;;5105385;27;61882;-78
2022/11/10 01:05:28;;;;;;;;;21.00;17.50;;;;;;;;5087508;27;61759;-78
2022/11/10 01:07:53;;;;;;;;;17.50;12.25;;;;;;;;5087364;27;61753;-78
2022/11/10 01:10:18;;;;;;;;;18.25;13.00;;;;;;;;5087347;27;61885;-78
2022/11/10 01:12:43;;;;;;;;;15.25;15.25;;;;;;;;5104159;27;62818;-79
2022/11/10 01:15:09;;;;;;;;;16.50;11.75;;;;;;;;5087147;27;61916;-78
2022/11/10 01:17:34;;;;;;;;;12.00;11.25;;;;;;;;5105800;27;62403;-78
2022/11/10 01:19:59;;;;;;;;;23.25;15.50;;;;;;;;5105528;27;61835;-79
2022/11/10 01:22:25;;;;;;;;;12.00;11.00;;;;;;;;5086869;27;62884;-79
2022/11/10 01:24:50;;;;;;;;;19.25;14.00;;;;;;;;5087015;27;61783;-79
2022/11/10 01:27:15;;;;;;;;;12.75;11.25;;;;;;;;5105187;27;62148;-79
2022/11/10 01:29:41;;;;;;;;;13.00;10.75;;;;;;;;5087448;27;62057;-78
2022/11/10 01:32:06;;;;;;;;;20.50;11.50;;;;;;;;5104996;27;62603;-78
2022/11/10 01:34:31;;;;;;;;;14.25;11.75;;;;;;;;5105007;27;62011;-78
2022/11/10 01:36:57;;;;;;;;;18.75;13.75;;;;;;;;5105773;27;61990;-79
2022/11/10 01:39:22;;;;;;;;;16.25;9.50;;;;;;;;5105825;27;62238;-78
2022/11/10 01:41:47;;;;;;;;;9.50;9.50;;;;;;;;5102864;27;62044;-78
2022/11/10 01:44:14;;;;;;;;;17.50;11.75;;;;;;;;5105475;27;61801;-79
2022/11/10 01:46:40;;;;;;;;;12.25;12.00;;;;;;;;5086849;27;62724;-78
2022/11/10 01:49:05;;;;;;;;;12.75;10.00;;;;;;;;5104981;27;61701;-78
2022/11/10 01:51:40;;;;;;;;;12.75;10.75;;;;;;;;5086426;27;63130;-78
2022/11/10 01:54:07;;;;;;;;;15.00;13.00;;;;;;;;5105200;27;61866;-79
2022/11/10 01:56:35;;;;;;;;;19.50;13.00;;;;;;;;5104442;27;61804;-78
2022/11/10 01:59:02;;;;;;;;;25.00;17.25;;;;;;;;5105332;27;62253;-78
2022/11/10 02:01:28;;;;;;;;;16.25;14.25;;;;;;;;5104524;27;62135;-79
2022/11/10 02:03:58;;;;;;;;;18.50;14.00;;;;;;;;5104804;27;62057;-79
2022/11/10 02:06:27;;;;;;;;;19.25;16.00;;;;;;;;5105094;27;62079;-79
2022/11/10 02:08:53;;;;;;;;;20.00;16.00;;;;;;;;5105110;27;61772;-78
2022/11/10 02:11:19;;;;;;;;;16.50;15.50;;;;;;;;5103674;27;62889;-78
2022/11/10 02:13:44;;;;;;;;;15.00;14.00;;;;;;;;5104491;27;62416;-78
2022/11/10 02:16:10;;;;;;;;;17.00;14.50;;;;;;;;5086414;27;61958;-78
2022/11/10 02:18:36;;;;;;;;;27.25;15.00;;;;;;;;5104505;27;61982;-78
2022/11/10 02:21:02;;;;;;;;;19.50;14.25;;;;;;;;5085798;27;63586;-78
2022/11/10 02:23:32;;;;;;;;;15.75;13.75;;;;;;;;5086178;27;62181;-78
2022/11/10 02:25:58;;;;;;;;;15.25;13.50;;;;;;;;5085798;27;61993;-79
2022/11/10 02:28:24;;;;;;;;;13.00;13.00;;;;;;;;5086015;27;61812;-78
2022/11/10 02:30:50;;;;;;;;;14.00;12.50;;;;;;;;5103997;27;61862;-78
2022/11/10 02:33:16;;;;;;;;;16.00;11.00;;;;;;;;5085745;27;61843;-79
2022/11/10 02:35:42;;;;;;;;;14.50;14.50;;;;;;;;5104698;27;61867;-78
2022/11/10 02:38:07;;;;;;;;;15.75;14.00;;;;;;;;5104848;27;61717;-78
2022/11/10 02:40:32;;;;;;;;;12.00;7.75;;;;;;;;5103456;27;61839;-79
2022/11/10 02:42:58;;;;;;;;;13.00;13.00;;;;;;;;5085528;27;62001;-78
2022/11/10 02:45:23;;;;;;;;;13.50;13.00;;;;;;;;5085943;27;62285;-78
2022/11/10 02:47:48;;;;;;;;;18.25;12.00;;;;;;;;5104193;27;61816;-79
2022/11/10 02:50:14;;;;;;;;;12.75;12.00;;;;;;;;5103513;27;62049;-78
2022/11/10 02:52:39;;;;;;;;;15.75;13.50;;;;;;;;5085627;27;61907;-78
2022/11/10 02:55:04;;;;;;;;;18.50;15.25;;;;;;;;5085048;27;61737;-79
2022/11/10 02:57:30;;;;;;;;;19.75;11.00;;;;;;;;5104127;27;62126;-78
2022/11/10 02:59:55;;;;;;;;;12.50;12.25;;;;;;;;5103270;27;62959;-79
2022/11/10 03:02:20;;;;;;;;;19.75;12.00;;;;;;;;5085474;27;62015;-78
2022/11/10 03:04:45;;;;;;;;;13.75;11.75;;;;;;;;5104013;27;61952;-78
2022/11/10 03:07:11;;;;;;;;;14.00;10.75;;;;;;;;5085936;27;61819;-78
2022/11/10 03:09:36;;;;;;;;;15.25;11.25;;;;;;;;5084514;27;61979;-78
2022/11/10 03:12:01;;;;;;;;;14.50;13.50;;;;;;;;5084789;27;62044;-78
2022/11/10 03:14:27;;;;;;;;;18.50;14.50;;;;;;;;5104059;27;62052;-78
2022/11/10 03:16:52;;;;;;;;;14.50;10.00;;;;;;;;5085660;27;62143;-78
2022/11/10 03:19:18;;;;;;;;;12.50;9.50;;;;;;;;5084210;27;62610;-78
2022/11/10 03:21:43;;;;;;;;;15.50;13.00;;;;;;;;5104046;27;61895;-79
2022/11/10 03:24:08;;;;;;;;;11.25;11.25;;;;;;;;5103157;27;61894;-79
2022/11/10 03:26:33;;;;;;;;;12.75;12.00;;;;;;;;5085238;27;61796;-78
2022/11/10 03:28:59;;;;;;;;;19.00;10.00;;;;;;;;5102725;27;63469;-79
2022/11/10 03:31:24;;;;;;;;;14.50;10.25;;;;;;;;5103885;27;61622;-78
2022/11/10 03:33:49;;;;;;;;;11.75;10.50;;;;;;;;5103534;27;61757;-78
2022/11/10 03:36:14;;;;;;;;;15.50;11.25;;;;;;;;5103791;27;61707;-79
2022/11/10 03:38:40;;;;;;;;;16.50;12.25;;;;;;;;5102488;27;62811;-78
2022/11/10 03:41:05;;;;;;;;;17.00;10.00;;;;;;;;5084992;27;61792;-78
2022/11/10 03:43:30;;;;;;;;;12.00;9.75;;;;;;;;5085005;27;61711;-78
2022/11/10 03:45:55;;;;;;;;;18.00;10.75;;;;;;;;5103614;27;61990;-78
2022/11/10 03:48:21;;;;;;;;;13.00;9.25;;;;;;;;5102279;27;61695;-79
2022/11/10 03:50:46;;;;;;;;;10.25;9.25;;;;;;;;5084903;27;61812;-78
2022/11/10 03:53:11;;;;;;;;;9.25;8.25;;;;;;;;5084590;27;62128;-79
2022/11/10 03:55:37;;;;;;;;;9.00;9.00;;;;;;;;5103353;27;62159;-78
2022/11/10 03:58:02;;;;;;;;;14.00;9.00;;;;;;;;5083566;27;63093;-78
2022/11/10 04:00:28;;;;;;;;;12.00;9.75;;;;;;;;5102921;27;61962;-78
2022/11/10 04:02:53;;;;;;;;;11.75;9.00;;;;;;;;5084813;27;61853;-79
2022/11/10 04:10:54;;;;;;;;;15.50;11.50;;;;;;;;5103108;27;61921;-79
2022/11/10 04:16:03;;;;;;;;;14.25;8.00;;;;;;;;5103373;27;61804;-79
2022/11/10 04:18:29;;;;;;;;;7.00;7.00;;;;;;;;5083361;27;64626;-78
2022/11/10 04:20:56;;;;;;;;;8.00;8.00;;;;;;;;5084214;27;61914;-79
2022/11/10 04:23:35;;;;;;;;;7.75;7.50;;;;;;;;5102793;27;62130;-78
2022/11/10 04:26:29;;;;;;;;;10.25;8.00;;;;;;;;5084681;27;62025;-78
2022/11/10 04:28:59;;;;;;;;;12.50;7.25;;;;;;;;5102438;27;62146;-79
2022/11/10 04:31:25;;;;;;;;;10.75;7.25;;;;;;;;5103107;27;61689;-78
2022/11/10 04:33:51;;;;;;;;;13.25;11.75;;;;;;;;5102827;27;62160;-78
2022/11/10 04:36:18;;;;;;;;;14.00;12.25;;;;;;;;5102508;27;62120;-78
2022/11/10 04:38:43;;;;;;;;;9.50;7.50;;;;;;;;5102373;27;62726;-78
2022/11/10 04:41:09;;;;;;;;;12.25;11.50;;;;;;;;5084142;27;61830;-79
2022/11/10 04:43:35;;;;;;;;;13.75;10.00;;;;;;;;5102471;27;61854;-78
2022/11/10 04:46:01;;;;;;;;;13.25;7.00;;;;;;;;5084228;27;62120;-78
2022/11/10 04:48:27;;;;;;;;;10.25;7.75;;;;;;;;5082562;27;62777;-78
2022/11/10 04:50:52;;;;;;;;;7.75;7.75;;;;;;;;5083655;27;61970;-79
2022/11/10 04:53:18;;;;;;;;;11.75;6.75;;;;;;;;5084052;27;62358;-79
2022/11/10 04:55:44;;;;;;;;;12.50;8.00;;;;;;;;5083995;27;62045;-78
2022/11/10 04:58:09;;;;;;;;;5.50;5.50;;;;;;;;5101575;27;62730;-78
2022/11/10 05:00:35;;;;;;;;;10.50;7.75;;;;;;;;5102490;27;61891;-79
2022/11/10 05:03:02;;;;;;;;;7.25;7.25;;;;;;;;5083879;27;61745;-78
2022/11/10 05:05:28;;;;;;;;;12.50;8.00;;;;;;;;5102362;27;62353;-78
2022/11/10 05:07:53;;;;;;;;;7.00;6.50;;;;;;;;5102063;27;62083;-78
2022/11/10 05:10:18;;;;;;;;;9.25;7.00;;;;;;;;5102282;27;62638;-79
2022/11/10 05:12:44;;;;;;;;;13.50;6.00;;;;;;;;5102390;27;61891;-78
2022/11/10 05:15:09;;;;;;;;;7.75;6.75;;;;;;;;5102290;27;62147;-78
2022/11/10 05:17:35;;;;;;;;;10.00;8.25;;;;;;;;5105315;27;61976;-78
2022/11/10 05:20:00;;;;;;;;;7.50;6.00;;;;;;;;5086576;27;62337;-78
2022/11/10 05:22:25;;;;;;;;;8.75;6.00;;;;;;;;5105746;27;61959;-79
2022/11/10 05:24:50;;;;;;;;;6.75;4.75;;;;;;;;5105886;27;61893;-78
2022/11/10 05:27:16;;;;;;;;;11.50;7.75;;;;;;;;5104479;27;63088;-78
2022/11/10 05:29:41;;;;;;;;;9.00;7.00;;;;;;;;5087330;27;62018;-78
2022/11/10 05:32:06;;;;;;;;;9.75;8.75;;;;;;;;5105789;27;61727;-78
2022/11/10 05:34:31;;;;;;;;;12.00;10.00;;;;;;;;5105220;27;62081;-78
2022/11/10 05:36:57;;;;;;;;;9.25;9.25;;;;;;;;5104756;27;61985;-78
2022/11/10 05:39:22;;;;;;;;;5.75;4.25;;;;;;;;5087012;27;61929;-78
2022/11/10 05:41:47;;;;;;;;;11.00;6.75;;;;;;;;5087063;27;62002;-79
2022/11/10 05:44:12;;;;;;;;;7.50;6.00;;;;;;;;5087077;27;62065;-78
2022/11/10 05:46:38;;;;;;;;;12.50;7.50;;;;;;;;5104526;27;62786;-78
2022/11/10 05:49:03;;;;;;;;;8.00;7.00;;;;;;;;5104801;27;61775;-78
2022/11/10 05:51:28;;;;;;;;;11.75;6.25;;;;;;;;5105347;27;61990;-78
2022/11/10 05:53:54;;;;;;;;;7.25;7.25;;;;;;;;5086847;27;61969;-78
2022/11/10 05:56:19;;;;;;;;;8.25;7.75;;;;;;;;5104259;27;62288;-78
2022/11/10 05:58:44;;;;;;;;;8.75;7.25;;;;;;;;5104484;27;61730;-78
2022/11/10 06:01:09;;;;;;;;;7.75;6.75;;;;;;;;5105075;27;61960;-80
2022/11/10 06:03:35;;;;;;;;;10.50;6.75;;;;;;;;5104808;27;62018;-80
2022/11/10 06:06:00;;;;;;;;;8.25;7.00;;;;;;;;5104303;27;61941;-79
2022/11/10 06:08:25;;;;;;;;;8.50;7.75;;;;;;;;5104774;27;61682;-80
2022/11/10 06:10:51;;;;;;;;;8.50;7.75;;;;;;;;5088296;27;61852;-80
2022/11/10 06:13:16;;;;;;;;;13.00;9.00;;;;;;;;5086092;27;61827;-80
2022/11/10 06:15:41;;;;;;;;;9.00;8.00;;;;;;;;5085756;27;63181;-80
2022/11/10 06:18:06;;;;;;;;;10.50;7.00;;;;;;;;5104480;27;61907;-79
2022/11/10 06:20:32;;;;;;;;;9.25;7.00;;;;;;;;5104451;27;62107;-80
2022/11/10 06:22:58;;;;;;;;;9.50;8.50;;;;;;;;5086391;27;61866;-80
2022/11/10 06:25:23;;;;;;;;;13.00;7.00;;;;;;;;5103813;27;62241;-79
2022/11/10 06:27:48;;;;;;;;;11.00;8.00;;;;;;;;5103385;27;61929;-79
2022/11/10 06:30:14;;;;;;;;;11.50;8.25;;;;;;;;5104553;27;61948;-78
2022/11/10 06:32:45;;;;;;;;;7.00;4.50;;;;;;;;5104404;27;61761;-78
2022/11/10 06:35:10;;;;;;;;;8.50;4.25;;;;;;;;5102842;27;62756;-78
2022/11/10 06:37:40;;;;;;;;;9.00;6.00;;;;;;;;5085180;27;61972;-86
2022/11/10 06:40:07;;;;;;;;;9.00;8.25;;;;;;;;5103049;27;61923;-84
2022/11/10 06:42:33;;;;;;;;;8.75;7.50;;;;;;;;5082884;27;62244;-79
2022/11/10 06:45:00;;;;;;;;;10.00;8.50;;;;;;;;5101664;27;61881;-80
2022/11/10 06:47:26;;;;;;;;;10.00;9.00;;;;;;;;5082647;27;61915;-77
2022/11/10 06:49:52;;;;;;;;;11.25;9.00;;;;;;;;5084014;27;61986;-77
2022/11/10 06:52:17;;;;;;;;;16.25;9.50;;;;;;;;5103598;27;61852;-77
2022/11/10 06:54:43;;;;;;;;;11.25;9.50;;;;;;;;5101967;27;61939;-76
2022/11/10 06:57:08;;;;;;;;;13.50;7.00;;;;;;;;5102494;27;61912;-75
2022/11/10 06:59:33;;;;;;;;;18.25;13.25;;;;;;;;5084016;27;62102;-75
2022/11/10 07:01:58;;;;;;;;;11.75;9.00;;;;;;;;5102656;27;61871;-75
2022/11/10 07:04:24;;;;;;;;;19.00;12.25;;;;;;;;5102431;27;62580;-76
2022/11/10 07:06:49;;;;;;;;;13.00;11.25;;;;;;;;5103551;27;61770;-76
2022/11/10 07:09:14;;;;;;;;;18.50;12.00;;;;;;;;5103745;27;61740;-75
2022/11/10 07:11:40;;;;;;;;;10.00;9.00;;;;;;;;5103717;27;61731;-76
2022/11/10 07:14:05;;;;;;;;;11.75;9.50;;;;;;;;5103053;27;62046;-76
2022/11/10 07:16:30;;;;;;;;;16.00;13.25;;;;;;;;5084145;27;61793;-75
2022/11/10 07:18:56;;;;;;;;;14.50;13.75;;;;;;;;5084909;27;61760;-75
2022/11/10 07:21:21;;;;;;;;;17.25;12.00;;;;;;;;5103857;27;61960;-76
2022/11/10 07:23:47;;;;;;;;;16.00;11.25;;;;;;;;5102553;27;61906;-75
2022/11/10 07:26:12;;;;;;;;;10.50;9.25;;;;;;;;5085393;27;61871;-76
2022/11/10 07:28:37;;;;;;;;;16.50;11.25;;;;;;;;5102544;27;61946;-75
2022/11/10 07:31:03;;;;;;;;;10.50;10.00;;;;;;;;5084661;27;62144;-75
2022/11/10 07:33:28;;;;;;;;;14.50;11.25;;;;;;;;5082622;27;61806;-76
2022/11/10 07:35:55;;;;;;;;;20.50;16.25;;;;;;;;5082947;27;62002;-76
2022/11/10 07:38:20;;;;;;;;;14.25;13.25;;;;;;;;5101896;27;61918;-76
2022/11/10 07:40:45;;;;;;;;;11.75;10.25;;;;;;;;5083121;27;61777;-77
2022/11/10 07:43:10;;;;;;;;;9.50;9.50;;;;;;;;5101975;27;61827;-81
2022/11/10 07:45:36;;;;;;;;;13.75;12.25;;;;;;;;5103894;27;62052;-82
2022/11/10 07:48:02;;;;;;;;;14.75;13.75;;;;;;;;5085412;27;62063;-82
2022/11/10 07:50:28;;;;;;;;;15.50;11.75;;;;;;;;5084410;27;61781;-83
2022/11/10 07:53:01;;;;;;;;;11.00;9.00;;;;;;;;5102601;27;61814;-80
2022/11/10 07:55:26;;;;;;;;;12.50;10.75;;;;;;;;5084354;27;61809;-79
2022/11/10 07:57:55;;;;;;;;;13.00;10.25;;;;;;;;5102584;27;61807;-78
2022/11/10 08:00:20;;;;;;;;;13.00;9.25;;;;;;;;5102194;27;61906;-80
2022/11/10 08:02:46;;;;;;;;;18.00;12.00;;;;;;;;5083385;27;63516;-79
2022/11/10 08:05:11;;;;;;;;;9.50;8.00;;;;;;;;5084229;27;61771;-80
2022/11/10 08:07:36;;;;;;;;;9.50;9.50;;;;;;;;5102858;27;61821;-79
2022/11/10 08:10:02;;;;;;;;;9.50;8.75;;;;;;;;5084703;27;62009;-79
2022/11/10 08:12:27;;;;;;;;;8.00;7.25;;;;;;;;5083755;27;63610;-79
2022/11/10 08:14:52;;;;;;;;;9.25;7.75;;;;;;;;5102371;27;62083;-79
2022/11/10 08:17:17;;;;;;;;;7.00;6.75;;;;;;;;5084924;27;61968;-79
2022/11/10 08:19:43;;;;;;;;;12.75;6.75;;;;;;;;5084107;27;61918;-79
2022/11/10 08:22:08;;;;;;;;;7.25;6.75;;;;;;;;5102652;27;61756;-80
2022/11/10 08:24:33;;;;;;;;;8.25;7.00;;;;;;;;5103157;27;61914;-80
2022/11/10 08:26:58;;;;;;;;;9.00;7.00;;;;;;;;5102000;27;62356;-80
2022/11/10 08:29:24;;;;;;;;;7.50;5.75;;;;;;;;5083304;27;62344;-80
2022/11/10 08:31:50;;;;;;;;;8.00;6.00;;;;;;;;5083453;27;61815;-79
2022/11/10 08:34:15;;;;;;;;;7.75;6.25;;;;;;;;5083858;27;61859;-80
2022/11/10 08:36:41;;;;;;;;;8.50;3.25;;;;;;;;5083731;27;62335;-80
2022/11/10 08:39:06;;;;;;;;;5.50;3.50;;;;;;;;5084347;27;61899;-81
2022/11/10 08:41:31;;;;;;;;;4.25;3.00;;;;;;;;5081802;27;63268;-79
2022/11/10 08:43:57;;;;;;;;;9.50;6.00;;;;;;;;5081237;27;61994;-79
2022/11/10 08:46:22;;;;;;;;;9.00;4.75;;;;;;;;5100468;27;62175;-80
2022/11/10 08:48:47;;;;;;;;;6.50;3.75;;;;;;;;5083703;27;61889;-79
2022/11/10 08:51:12;;;;;;;;;5.00;3.00;;;;;;;;5085058;27;64222;-79
2022/11/10 08:53:38;;;;;;;;;2.25;1.00;;;;;;;;5106137;27;61734;-79
2022/11/10 08:56:03;;;;;;;;;7.50;7.00;;;;;;;;5090364;27;61791;-79
2022/11/10 08:58:28;;;;;;;;;4.50;3.00;;;;;;;;5066039;28;62074;-79
2022/11/10 09:00:55;;;;;;;;;6.00;5.00;;;;;;;;5084604;27;61980;-79
2022/11/10 09:03:22;;;;;;;;;8.00;5.50;;;;;;;;5085618;27;61709;-79
2022/11/10 09:05:47;;;;;;;;;5.00;5.00;;;;;;;;5066884;28;61784;-79
2022/11/10 09:08:13;;;;;;;;;8.75;7.25;;;;;;;;5085524;28;61748;-79
2022/11/10 09:10:40;;;;;;;;;9.25;6.00;;;;;;;;5066304;28;63228;-79
2022/11/10 09:13:05;;;;;;;;;7.75;3.75;;;;;;;;5065913;27;61790;-79
2022/11/10 09:15:31;;;;;;;;;4.50;4.50;;;;;;;;5085432;27;61757;-79
2022/11/10 09:18:00;;;;;;;;;7.25;5.00;;;;;;;;5084973;27;61980;-79
2022/11/10 09:20:26;;;;;;;;;7.00;4.00;;;;;;;;5065668;28;63526;-79
2022/11/10 09:22:52;;;;;;;;;5.00;4.00;;;;;;;;5065999;28;62029;-79
2022/11/10 09:25:17;;;;;;;;;5.50;4.75;;;;;;;;5066525;28;61829;-79
2022/11/10 09:27:42;;;;;;;;;4.00;3.50;;;;;;;;5084584;27;61880;-79
2022/11/10 09:30:08;;;;;;;;;7.00;4.75;;;;;;;;5084054;28;61850;-79
2022/11/10 09:32:33;;;;;;;;;4.00;4.00;;;;;;;;5084509;28;61879;-79
2022/11/10 09:34:59;;;;;;;;;4.00;4.00;;;;;;;;5066340;28;61947;-79
2022/11/10 09:37:25;;;;;;;;;4.50;4.00;;;;;;;;5085455;27;61780;-79
2022/11/10 09:39:50;;;;;;;;;3.00;3.00;;;;;;;;5065604;28;62784;-79
2022/11/10 09:42:30;;;;;;;;;5.75;4.00;;;;;;;;5084282;28;61729;-79
2022/11/10 09:45:00;;;;;;;;;3.00;3.00;;;;;;;;5084703;28;61935;-79
2022/11/10 09:47:30;;;;;;;;;5.50;3.00;;;;;;;;5066557;28;61795;-79
2022/11/10 09:49:59;;;;;;;;;5.00;3.75;;;;;;;;5064972;28;63517;-80
2022/11/10 09:52:26;;;;;;;;;3.50;3.50;;;;;;;;5066342;28;61898;-79
2022/11/10 09:55:01;;;;;;;;;4.00;2.75;;;;;;;;5065427;28;61838;-79
2022/11/10 09:57:28;;;;;;;;;3.00;3.00;;;;;;;;5065946;28;61779;-79
2022/11/10 09:59:53;;;;;;;;;3.00;2.00;;;;;;;;5083448;28;62080;-79
2022/11/10 10:02:28;;;;;;;;;1.75;1.75;;;;;;;;5065055;28;62054;-79
2022/11/10 10:05:09;;;;;;;;;3.50;2.50;;;;;;;;5084192;28;61923;-79
2022/11/10 10:07:48;;;;;;;;;1.00;1.00;;;;;;;;5084524;27;61731;-79
2022/11/10 10:10:22;;;;;;;;;4.25;2.75;;;;;;;;5064953;28;62223;-79
2022/11/10 10:12:56;;;;;;;;;5.00;2.25;;;;;;;;5083870;27;61707;-79
2022/11/10 10:15:36;;;;;;;;;3.75;3.00;;;;;;;;5084485;27;61966;-80
2022/11/10 10:18:15;;;;;;;;;6.75;3.00;;;;;;;;5065834;27;61829;-79
2022/11/10 10:20:40;;;;;;;;;4.75;3.00;;;;;;;;5065055;28;62755;-79
2022/11/10 10:23:26;;;;;;;;;3.75;1.75;;;;;;;;5065349;28;61881;-79
2022/11/10 10:25:52;;;;;;;;;2.00;2.00;;;;;;;;5065118;28;61739;-79
2022/11/10 10:28:17;;;;;;;;;1.25;1.25;;;;;;;;5083899;28;63043;-79
2022/11/10 10:30:43;;;;;;;;;3.00;2.00;;;;;;;;5083560;28;61858;-79
2022/11/10 10:33:19;;;;;;;;;1.50;1.50;;;;;;;;5065650;28;61774;-79
2022/11/10 10:35:46;;;;;;;;;2.00;2.00;;;;;;;;5083827;27;61874;-79
2022/11/10 10:38:32;;;;;;;;;2.00;2.00;;;;;;;;5083263;27;61727;-79
2022/11/10 10:40:59;;;;;;;;;2.50;1.50;;;;;;;;5064914;28;63047;-79
2022/11/10 10:43:24;;;;;;;;;1.25;1.00;;;;;;;;5083764;27;61756;-79
2022/11/10 10:46:10;;;;;;;;;7.00;2.50;;;;;;;;5083811;28;61870;-79
2022/11/10 10:48:35;;;;;;;;;4.75;1.50;;;;;;;;5083315;28;61699;-80
2022/11/10 10:51:01;;;;;;;;;3.50;2.00;;;;;;;;5064771;28;61903;-80
2022/11/10 10:53:26;;;;;;;;;3.00;1.00;;;;;;;;5065015;28;61730;-80
2022/11/10 10:55:51;;;;;;;;;3.50;2.50;;;;;;;;5078876;27;61748;-79
2022/11/10 10:58:21;;;;;;;;;2.00;1.00;;;;;;;;5103622;27;62286;-79
2022/11/10 11:00:48;;;;;;;;;2.25;0.25;;;;;;;;5084935;27;63455;-79
2022/11/10 11:03:37;;;;;;;;;3.25;2.00;;;;;;;;5103289;27;62115;-79
2022/11/10 11:06:05;;;;;;;;;3.00;3.00;;;;;;;;5084649;27;61772;-79
2022/11/10 11:08:31;;;;;;;;;1.50;1.50;;;;;;;;5085295;27;61887;-79
2022/11/10 11:11:05;;;;;;;;;2.75;1.00;;;;;;;;5084990;27;61722;-79
2022/11/10 11:13:30;;;;;;;;;1.75;1.75;;;;;;;;5103440;27;61931;-79
2022/11/10 11:16:00;;;;;;;;;1.50;1.50;;;;;;;;5084957;27;61777;-79
2022/11/10 11:18:27;;;;;;;;;5.00;2.00;;;;;;;;5084489;27;61930;-79
2022/11/10 11:20:58;;;;;;;;;2.00;2.00;;;;;;;;5103016;27;61787;-79
2022/11/10 11:23:26;;;;;;;;;3.00;3.00;;;;;;;;5102934;27;61850;-79
2022/11/10 11:25:54;;;;;;;;;1.00;1.00;;;;;;;;5103252;27;61903;-79
2022/11/10 11:28:25;;;;;;;;;3.75;2.00;;;;;;;;5084971;27;61804;-79
2022/11/10 11:30:54;;;;;;;;;1.00;1.00;;;;;;;;5084582;27;63560;-79
2022/11/10 11:33:36;;;;;;;;;4.00;3.00;;;;;;;;5084793;27;61702;-79
2022/11/10 11:36:06;;;;;;;;;3.25;2.75;;;;;;;;5102790;27;61860;-79
2022/11/10 11:38:35;;;;;;;;;5.00;3.50;;;;;;;;5084998;27;61812;-79
2022/11/10 11:41:16;;;;;;;;;4.50;2.00;;;;;;;;5084566;27;62699;-79
2022/11/10 11:44:00;;;;;;;;;9.75;4.75;;;;;;;;5102760;27;61764;-79
2022/11/10 11:46:30;;;;;;;;;5.00;3.50;;;;;;;;5084344;27;61865;-79
2022/11/10 11:49:02;;;;;;;;;2.00;2.00;;;;;;;;5084583;27;61817;-79
2022/11/10 11:51:33;;;;;;;;;5.25;1.25;;;;;;;;5102191;27;61880;-79
2022/11/10 11:54:14;;;;;;;;;3.50;3.00;;;;;;;;5103149;27;61959;-79
2022/11/10 11:56:41;;;;;;;;;2.00;2.00;;;;;;;;5082181;28;62090;-79
2022/11/10 11:59:17;;;;;;;;;4.00;2.25;;;;;;;;5082237;28;61789;-79
2022/11/10 12:02:02;;;;;;;;;3.25;3.00;;;;;;;;5082115;27;62885;-79
2022/11/10 12:04:28;;;;;;;;;4.00;2.50;;;;;;;;5081912;27;61754;-79
2022/11/10 12:06:53;;;;;;;;;2.25;2.25;;;;;;;;5082271;27;61881;-79
2022/11/10 12:09:27;;;;;;;;;1.00;1.00;;;;;;;;5082592;27;61820;-79
2022/11/10 12:11:58;;;;;;;;;2.50;0.75;;;;;;;;5081602;27;61996;-80
2022/11/10 12:14:39;;;;;;;;;2.50;1.75;;;;;;;;5063590;28;62372;-79
2022/11/10 12:17:19;;;;;;;;;6.75;4.00;;;;;;;;5082486;27;61932;-79
2022/11/10 12:19:44;;;;;;;;;7.50;3.00;;;;;;;;5063048;27;61777;-80
2022/11/10 12:22:31;;;;;;;;;1.00;1.00;;;;;;;;5063260;28;61889;-80
2022/11/10 12:25:12;;;;;;;;;2.00;2.00;;;;;;;;5063528;28;61970;-80
2022/11/10 12:27:44;;;;;;;;;2.00;1.00;;;;;;;;5063101;28;61892;-80
2022/11/10 12:30:13;;;;;;;;;2.00;2.00;;;;;;;;5064244;28;62026;-80
2022/11/10 12:32:57;;;;;;;;;4.00;2.00;;;;;;;;5063327;28;62147;-80
2022/11/10 12:35:29;;;;;;;;;2.25;1.25;;;;;;;;5081342;28;62047;-80
2022/11/10 12:37:55;;;;;;;;;2.00;2.00;;;;;;;;5082235;28;62113;-79
2022/11/10 12:40:31;;;;;;;;;5.25;2.75;;;;;;;;5081829;28;62121;-80
2022/11/10 12:43:00;;;;;;;;;2.00;2.00;;;;;;;;5081423;28;62831;-80
2022/11/10 12:45:39;;;;;;;;;4.75;1.00;;;;;;;;5063399;28;61763;-80
2022/11/10 12:48:05;;;;;;;;;0.00;0.00;;;;;;;;5082137;27;61702;-80
2022/11/10 12:50:39;;;;;;;;;1.00;1.00;;;;;;;;5062296;28;61752;-80
2022/11/10 12:53:25;;;;;;;;;3.00;1.33;;;;;;;;5062878;28;61797;-80
2022/11/10 12:56:13;;;;;;;;;7.25;5.50;;;;;;;;5082871;27;61871;-79
2022/11/10 12:58:38;;;;;;;;;7.00;3.00;;;;;;;;5101025;27;61967;-80
2022/11/10 13:01:06;;;;;;;;;2.25;2.00;;;;;;;;5084193;27;61868;-80
2022/11/10 13:03:31;;;;;;;;;4.00;3.00;;;;;;;;5101082;27;61996;-80
2022/11/10 13:05:58;;;;;;;;;1.75;1.75;;;;;;;;5083420;27;62073;-79
2022/11/10 13:08:26;;;;;;;;;4.25;2.50;;;;;;;;5083418;27;61767;-80
2022/11/10 13:11:03;;;;;;;;;3.33;3.00;;;;;;;;5102426;27;61982;-80
2022/11/10 13:13:29;;;;;;;;;2.00;2.00;;;;;;;;5082635;27;62000;-80
2022/11/10 13:15:56;;;;;;;;;2.33;2.33;;;;;;;;5101808;27;61732;-80
2022/11/10 13:18:45;;;;;;;;;2.33;2.33;;;;;;;;5100718;27;61751;-80
2022/11/10 13:21:10;;;;;;;;;5.67;2.67;;;;;;;;5083606;27;61802;-80
2022/11/10 13:23:36;;;;;;;;;5.00;3.00;;;;;;;;5101240;27;61925;-80
2022/11/10 13:26:09;;;;;;;;;3.33;3.33;;;;;;;;5083684;27;61950;-80
2022/11/10 13:28:46;;;;;;;;;3.33;3.33;;;;;;;;5083151;27;62404;-80
2022/11/10 13:31:26;;;;;;;;;2.00;1.00;;;;;;;;5101588;27;61744;-80
2022/11/10 13:34:04;;;;;;;;;1.67;1.67;;;;;;;;5082159;27;61993;-80
2022/11/10 13:36:45;;;;;;;;;7.67;4.00;;;;;;;;5101061;27;61864;-80
2022/11/10 13:39:21;;;;;;;;;4.67;4.67;;;;;;;;5104227;27;61791;-80
2022/11/10 13:42:02;;;;;;;;;4.00;3.00;;;;;;;;5086867;27;61820;-80
2022/11/10 13:44:28;;;;;;;;;8.67;5.00;;;;;;;;5085683;27;63761;-80
2022/11/10 13:47:06;;;;;;;;;3.33;3.33;;;;;;;;5085860;27;61887;-80
2022/11/10 13:49:50;;;;;;;;;3.33;3.33;;;;;;;;5102851;27;61698;-80
2022/11/10 13:52:21;;;;;;;;;4.00;4.00;;;;;;;;5100608;27;61925;-80
2022/11/10 13:55:08;;;;;;;;;5.00;3.33;;;;;;;;5104736;27;62019;-80
2022/11/10 13:57:36;;;;;;;;;5.33;4.00;;;;;;;;5078101;27;61850;-80
2022/11/10 14:00:20;;;;;;;;;5.00;5.00;;;;;;;;5071680;28;61887;-80
2022/11/10 14:02:46;;;;;;;;;3.67;2.67;;;;;;;;5070878;28;62246;-80
2022/11/10 14:05:30;;;;;;;;;6.33;4.00;;;;;;;;5071615;28;61913;-80
2022/11/10 14:08:06;;;;;;;;;9.33;6.00;;;;;;;;5071885;28;61974;-80
2022/11/10 14:10:52;;;;;;;;;5.00;3.67;;;;;;;;5073218;28;61820;-80
2022/11/10 14:13:21;;;;;;;;;7.00;6.00;;;;;;;;5082394;27;61850;-80
2022/11/10 14:15:47;;;;;;;;;7.33;4.33;;;;;;;;5081782;27;63345;-80
2022/11/10 14:18:27;;;;;;;;;5.00;5.00;;;;;;;;5069557;28;62118;-85
2022/11/10 14:20:57;;;;;;;;;9.75;6.00;;;;;;;;5073606;28;62016;-85
2022/11/10 14:23:29;;;;;;;;;5.75;5.00;;;;;;;;5073888;27;61786;-85
2022/11/10 14:26:02;;;;;;;;;8.75;5.00;;;;;;;;5091640;27;63091;-86
2022/11/10 14:28:32;;;;;;;;;10.00;6.50;;;;;;;;5091846;27;61886;-85
2022/11/10 14:30:58;;;;;;;;;5.00;5.00;;;;;;;;5105314;27;61863;-80
2022/11/10 14:33:24;;;;;;;;;3.75;3.75;;;;;;;;5090322;27;61866;-80
2022/11/10 14:35:51;;;;;;;;;6.00;6.00;;;;;;;;5090006;27;61914;-80
2022/11/10 14:38:18;;;;;;;;;6.50;5.75;;;;;;;;5093929;27;61837;-80
2022/11/10 14:40:43;;;;;;;;;4.00;4.00;;;;;;;;5091498;27;61921;-80
2022/11/10 14:43:29;;;;;;;;;4.75;4.00;;;;;;;;5093167;27;61973;-80
2022/11/10 14:45:54;;;;;;;;;5.00;5.00;;;;;;;;5088328;27;62830;-80
2022/11/10 14:48:22;;;;;;;;;4.50;4.25;;;;;;;;5087797;27;61964;-80
2022/11/10 14:50:47;;;;;;;;;5.75;4.50;;;;;;;;5092775;27;61992;-80
2022/11/10 14:53:21;;;;;;;;;6.00;4.00;;;;;;;;5090020;27;61768;-80